Time;durP1;ratioP1;P1;durP2;ratioP2;P2;SDS_P1;SDS_P2;PMS_P1;PMS_P2;Temp;Humidity;BMP_temperature;BMP_pressure;BME280_temperature;BME280_humidity;BME280_pressure;Samples;Min_cycle;Max_cycle;Signal;HPM_P1;HPM_P2
2022/01/03 00:01:02;;;;;;;31.02;13.07;;;;;;;-2.30;75.50;97613.28;4906402;29;20044;-78
2022/01/03 00:03:28;;;;;;;40.72;15.32;;;;;;;-2.33;75.47;97606.47;4939767;29;20039;-78
2022/01/03 00:05:54;;;;;;;36.58;13.05;;;;;;;-2.25;75.52;97617.34;4936976;29;20415;-78
2022/01/03 00:08:20;;;;;;;42.17;13.02;;;;;;;-2.30;75.31;97619.34;4937980;29;20046;-79
2022/01/03 00:10:46;;;;;;;33.15;13.77;;;;;;;-2.31;75.34;97616.81;4936804;29;20063;-79
2022/01/03 00:13:12;;;;;;;32.17;13.63;;;;;;;-2.33;75.52;97609.06;4930665;29;20083;-79
2022/01/03 00:15:38;;;;;;;38.83;13.95;;;;;;;-2.28;75.48;97609.66;4945911;29;20039;-77
2022/01/03 00:18:04;;;;;;;34.72;14.13;;;;;;;-2.27;75.68;97603.47;4937190;29;20055;-77
2022/01/03 00:20:30;;;;;;;37.65;13.93;;;;;;;-2.36;75.69;97601.38;4937866;29;20479;-78
2022/01/03 00:22:57;;;;;;;32.67;13.57;;;;;;;-2.39;75.57;97591.09;4936638;29;20126;-78
2022/01/03 00:25:25;;;;;;;32.25;13.40;;;;;;;-2.27;75.42;97598.25;4920694;29;20052;-77
2022/01/03 00:27:57;;;;;;;31.90;14.57;;;;;;;-2.37;75.38;97576.16;4920924;29;20067;-78
2022/01/03 00:30:24;;;;;;;34.17;13.80;;;;;;;-2.20;75.69;97591.72;4921320;29;20411;-78
2022/01/03 00:32:51;;;;;;;33.83;12.95;;;;;;;-2.19;75.49;97589.97;4936410;29;20048;-78
2022/01/03 00:35:18;;;;;;;36.95;14.75;;;;;;;-2.16;75.48;97594.19;4936955;29;20040;-78
2022/01/03 00:37:45;;;;;;;27.98;12.88;;;;;;;-2.16;75.04;97588.94;4936869;29;20039;-78
2022/01/03 00:40:16;;;;;;;34.97;12.70;;;;;;;-2.15;75.06;97591.47;4920332;29;20142;-78
2022/01/03 00:42:42;;;;;;;42.78;15.32;;;;;;;-2.06;75.29;97580.50;4889191;29;20044;-78
2022/01/03 00:45:08;;;;;;;36.13;13.95;;;;;;;-1.99;74.65;97575.75;4920429;29;20430;-78
2022/01/03 00:47:35;;;;;;;39.28;14.13;;;;;;;-1.92;74.40;97579.66;4935992;29;20086;-78
2022/01/03 00:50:07;;;;;;;34.17;13.43;;;;;;;-1.90;74.29;97575.22;4920123;29;20517;-78
2022/01/03 00:52:33;;;;;;;34.40;13.50;;;;;;;-1.87;74.36;97575.03;4905039;29;20044;-78
2022/01/03 00:54:59;;;;;;;38.05;14.60;;;;;;;-1.86;73.92;97576.72;4920207;29;20086;-79
2022/01/03 00:57:40;;;;;;;41.78;15.95;;;;;;;-1.94;74.21;97568.47;4937058;29;20082;-79
2022/01/03 01:00:08;;;;;;;33.25;14.30;;;;;;;-2.09;74.23;97575.44;4905006;29;20107;-78
2022/01/03 01:02:35;;;;;;;32.60;13.05;;;;;;;-2.11;74.78;97571.19;4904948;29;20480;-78
2022/01/03 01:05:04;;;;;;;39.72;13.75;;;;;;;-2.04;74.24;97577.78;4935991;29;20140;-79
2022/01/03 01:07:30;;;;;;;49.00;14.52;;;;;;;-1.99;74.81;97571.34;4904568;29;20380;-78
2022/01/03 01:09:55;;;;;;;39.10;13.75;;;;;;;-1.95;74.54;97572.03;4935867;29;20047;-78
2022/01/03 01:12:21;;;;;;;39.15;14.77;;;;;;;-1.85;74.41;97567.91;4904385;29;20051;-79
2022/01/03 01:14:51;;;;;;;38.20;13.70;;;;;;;-1.85;74.25;97562.69;4935669;29;20130;-78
2022/01/03 01:17:18;;;;;;;40.30;14.90;;;;;;;-1.77;73.93;97560.47;4920012;29;20055;-77
2022/01/03 01:19:45;;;;;;;39.80;13.80;;;;;;;-1.79;73.94;97551.00;4935177;29;20589;-77
2022/01/03 01:22:11;;;;;;;41.05;15.90;;;;;;;-1.77;74.05;97555.25;4951531;29;20094;-78
2022/01/03 01:24:48;;;;;;;42.78;14.27;;;;;;;-1.82;73.69;97551.19;4903842;29;20146;-78
2022/01/03 01:30:01;;;;;;;35.10;14.70;;;;;;;-1.75;73.96;97549.91;4935489;29;20412;-80
2022/01/03 01:32:27;;;;;;;40.88;15.50;;;;;;;-1.75;73.81;97549.91;4935400;29;20098;-78
2022/01/03 01:34:53;;;;;;;47.65;15.07;;;;;;;-1.77;73.78;97531.66;4936301;29;20059;-79
2022/01/03 01:37:20;;;;;;;40.22;14.18;;;;;;;-1.91;73.68;97539.50;4919593;29;20431;-78
2022/01/03 01:39:49;;;;;;;44.13;15.63;;;;;;;-1.77;73.91;97529.03;4935375;29;20203;-78
2022/01/03 01:42:16;;;;;;;41.38;15.50;;;;;;;-1.68;73.65;97527.66;4936261;29;20130;-77
2022/01/03 01:44:47;;;;;;;39.80;14.93;;;;;;;-1.61;73.74;97533.38;4919496;29;20058;-79
2022/01/03 01:47:13;;;;;;;42.63;14.75;;;;;;;-1.54;73.70;97525.06;4919707;29;20051;-80
2022/01/03 01:49:47;;;;;;;37.42;15.10;;;;;;;-1.56;73.44;97519.03;4918872;29;20474;-78
2022/01/03 01:52:20;;;;;;;44.00;14.88;;;;;;;-1.54;73.33;97521.59;4917866;29;20043;-79
2022/01/03 01:54:57;;;;;;;45.85;15.85;;;;;;;-1.51;73.19;97510.91;4918140;29;20050;-80
2022/01/03 01:57:43;;;;;;;32.42;14.15;;;;;;;-1.60;72.80;97520.16;4906612;29;20118;-79
2022/01/03 02:00:12;;;;;;;42.10;13.88;;;;;;;-1.58;73.03;97522.69;4953409;29;20043;-79
2022/01/03 02:02:43;;;;;;;36.05;13.95;;;;;;;-1.56;72.96;97521.66;4920585;29;20130;-77
2022/01/03 02:05:34;;;;;;;30.70;13.82;;;;;;;-1.54;73.02;97526.84;4904271;29;20134;-77
2022/01/03 02:08:21;;;;;;;36.38;13.10;;;;;;;-1.63;72.90;97529.97;4951165;29;20083;-79
2022/01/03 02:11:13;;;;;;;30.88;12.95;;;;;;;-1.53;73.29;97539.00;4937708;29;20039;-78
2022/01/03 02:13:39;;;;;;;42.42;14.55;;;;;;;-1.52;73.30;97523.16;4903888;29;20082;-79
2022/01/03 02:16:07;;;;;;;36.42;13.95;;;;;;;-1.39;73.10;97528.53;4918936;29;20074;-78
2022/01/03 02:18:40;;;;;;;34.38;13.88;;;;;;;-1.33;72.76;97528.13;4918868;29;20055;-79
2022/01/03 02:21:08;;;;;;;38.22;14.27;;;;;;;-1.35;72.61;97523.94;4918537;29;20047;-78
2022/01/03 02:23:35;;;;;;;31.63;13.98;;;;;;;-1.28;72.06;97530.47;4887789;29;20044;-79
2022/01/03 02:26:02;;;;;;;35.17;14.73;;;;;;;-1.23;72.42;97517.94;4919032;29;20118;-79
2022/01/03 02:28:27;;;;;;;27.42;13.45;;;;;;;-1.25;71.81;97523.25;4919428;29;20491;-78
2022/01/03 02:30:55;;;;;;;34.95;13.70;;;;;;;-1.26;71.99;97524.19;4934525;29;20495;-84
2022/01/03 02:33:21;;;;;;;30.23;13.13;;;;;;;-1.29;71.95;97515.69;4918947;29;20063;-78
2022/01/03 02:35:48;;;;;;;35.90;15.35;;;;;;;-1.19;71.82;97518.59;4950371;29;20134;-81
2022/01/03 02:38:16;;;;;;;28.50;13.73;;;;;;;-1.22;71.59;97517.00;4887943;29;20040;-76
2022/01/03 02:40:42;;;;;;;30.27;13.18;;;;;;;-1.33;71.25;97538.63;4934653;29;20052;-76
2022/01/03 02:43:08;;;;;;;27.60;12.05;;;;;;;-1.59;71.97;97531.47;4934558;29;20055;-77
2022/01/03 02:45:35;;;;;;;33.55;13.10;;;;;;;-1.67;72.20;97529.31;4903031;29;20051;-78
2022/01/03 02:48:04;;;;;;;25.88;11.25;;;;;;;-1.79;71.60;97519.59;4934506;29;20070;-77
2022/01/03 02:50:31;;;;;;;16.42;8.82;;;;;;;-1.98;71.07;97523.28;4919076;29;20051;-78
2022/01/03 02:52:57;;;;;;;16.67;9.15;;;;;;;-2.03;70.74;97521.84;4903024;29;20048;-77
2022/01/03 02:55:24;;;;;;;17.05;9.52;;;;;;;-2.00;70.55;97522.50;4902946;29;20067;-79
2022/01/03 02:57:52;;;;;;;18.70;9.23;;;;;;;-2.17;70.44;97527.91;4935854;29;20043;-77
2022/01/03 03:00:19;;;;;;;;;;;;;;;-2.10;70.68;97538.88;4907044;29;20145;-77
2022/01/03 03:02:45;;;;;;;13.23;8.43;;;;;;;-2.09;70.36;97532.69;4937370;29;20392;-77
2022/01/03 03:05:11;;;;;;;14.48;8.63;;;;;;;-2.18;70.25;97541.06;4922111;29;20053;-78
2022/01/03 03:07:37;;;;;;;13.15;8.70;;;;;;;-2.18;70.39;97538.44;4925746;29;20097;-78
2022/01/03 03:10:10;;;;;;;14.07;8.82;;;;;;;-2.25;70.15;97532.75;4941110;29;20138;-77
2022/01/03 03:12:36;;;;;;;14.13;8.68;;;;;;;-2.28;70.00;97538.16;4894297;29;20510;-77
2022/01/03 03:15:03;;;;;;;14.93;8.90;;;;;;;-2.42;70.42;97533.69;4940845;29;20050;-76
2022/01/03 03:17:30;;;;;;;16.67;9.10;;;;;;;-2.39;70.32;97537.91;4909621;28;20054;-77
2022/01/03 03:20:18;;;;;;;14.45;8.60;;;;;;;-2.72;70.91;97534.47;4878014;29;20047;-77
2022/01/03 03:22:44;;;;;;;14.38;8.85;;;;;;;-2.76;70.77;97527.72;4925002;29;20380;-77
2022/01/03 03:25:14;;;;;;;15.10;8.55;;;;;;;-2.85;71.48;97519.56;4940586;29;20150;-78
2022/01/03 03:27:46;;;;;;;16.42;8.82;;;;;;;-2.89;71.31;97537.19;4940417;29;20043;-78
2022/01/03 03:30:25;;;;;;;19.92;8.50;;;;;;;-2.82;71.43;97538.53;4895991;29;20043;-78
2022/01/03 03:32:54;;;;;;;11.82;6.68;;;;;;;-3.07;68.78;97552.09;4924431;29;20051;-78
2022/01/03 03:35:20;;;;;;;13.90;7.85;;;;;;;-3.37;68.20;97551.13;4941028;29;20047;-78
2022/01/03 03:37:46;;;;;;;10.95;6.32;;;;;;;-3.62;68.47;97543.72;4956650;29;20062;-80
2022/01/03 03:40:12;;;;;;;11.02;6.15;;;;;;;-3.66;68.44;97556.06;4940548;29;20047;-78
2022/01/03 03:42:40;;;;;;;10.30;5.95;;;;;;;-3.89;68.35;97549.41;4924601;28;20069;-77
2022/01/03 03:45:06;;;;;;;11.98;6.88;;;;;;;-3.96;68.62;97568.91;4916690;29;20126;-78
2022/01/03 03:47:33;;;;;;;16.73;7.13;;;;;;;-4.01;69.02;97560.47;4943352;29;20102;-79
2022/01/03 03:49:59;;;;;;;10.48;6.65;;;;;;;-4.13;69.54;97561.09;4925048;29;20055;-78
2022/01/03 03:52:26;;;;;;;7.45;5.20;;;;;;;-4.31;69.59;97574.13;4925307;29;20130;-79
2022/01/03 03:54:53;;;;;;;14.25;6.88;;;;;;;-4.43;70.24;97585.16;4924677;29;20074;-83
2022/01/03 03:57:22;;;;;;;12.07;6.43;;;;;;;-4.55;70.61;97570.06;4942436;29;20047;-78
2022/01/03 03:59:48;;;;;;;13.13;6.88;;;;;;;-4.64;71.00;97572.19;4953723;29;20058;-81
2022/01/03 04:02:14;;;;;;;12.13;6.82;;;;;;;-4.76;71.20;97571.94;4905384;29;20044;-77
2022/01/03 04:04:40;;;;;;;9.13;4.85;;;;;;;-4.97;71.76;97573.75;4937222;29;20078;-78
2022/01/03 04:07:08;;;;;;;7.18;4.10;;;;;;;-5.08;71.53;97586.44;4936823;29;20135;-88
2022/01/03 04:09:34;;;;;;;10.98;5.20;;;;;;;-5.19;72.38;97579.09;4905232;29;20392;-85
2022/01/03 04:12:05;;;;;;;9.35;4.80;;;;;;;-5.12;74.20;97586.56;4921169;29;20107;-80
2022/01/03 04:14:33;;;;;;;9.75;5.75;;;;;;;-5.07;74.08;97582.94;4921359;29;20075;-89
2022/01/03 04:16:59;;;;;;;11.55;6.38;;;;;;;-5.02;74.83;97584.41;4905199;29;20507;-84
2022/01/03 04:19:25;;;;;;;6.40;4.57;;;;;;;-5.24;72.59;97589.72;4936390;29;20047;-76
2022/01/03 04:21:51;;;;;;;13.20;6.03;;;;;;;-5.42;71.40;97575.75;4937728;29;20443;-82
2022/01/03 04:24:18;;;;;;;7.55;4.82;;;;;;;-5.42;71.46;97585.34;4919736;29;20059;-79
2022/01/03 04:26:45;;;;;;;5.70;3.95;;;;;;;-5.53;70.77;97590.16;4920092;29;20565;-79
2022/01/03 04:29:12;;;;;;;9.35;5.65;;;;;;;-5.68;70.83;97592.53;4902631;29;20104;-86
2022/01/03 04:31:38;;;;;;;8.27;5.20;;;;;;;-5.80;70.92;97587.84;4901282;29;20047;-84
2022/01/03 04:34:05;;;;;;;13.55;5.10;;;;;;;-5.87;71.15;97602.03;4928046;29;20389;-81
2022/01/03 04:36:31;;;;;;;12.55;5.10;;;;;;;-6.00;71.03;97617.34;4935298;29;20102;-80
2022/01/03 04:38:57;;;;;;;5.70;3.00;;;;;;;-6.22;71.45;97609.56;4872947;29;20134;-79
2022/01/03 04:41:23;;;;;;;7.82;4.30;;;;;;;-6.32;72.09;97608.22;4935197;29;20515;-81
2022/01/03 04:43:50;;;;;;;6.47;4.47;;;;;;;-6.34;72.18;97612.66;4917342;29;20519;-80
2022/01/03 04:46:16;;;;;;;5.80;4.13;;;;;;;-6.36;72.25;97604.94;4896170;29;20138;-83
2022/01/03 04:48:46;;;;;;;9.07;4.28;;;;;;;-6.31;72.12;97602.16;4875856;29;20097;-94
2022/01/03 04:51:12;;;;;;;7.82;4.28;;;;;;;-6.45;72.47;97594.88;4867877;29;20051;-91
2022/01/03 04:53:40;;;;;;;13.45;4.68;;;;;;;-6.39;72.62;97606.81;4894639;29;20067;-85
2022/01/03 04:56:11;;;;;;;6.18;4.47;;;;;;;-6.37;72.48;97610.19;4893328;29;20134;-79
2022/01/03 04:58:38;;;;;;;6.13;3.40;;;;;;;-6.45;72.75;97614.84;4892022;29;20618;-80
2022/01/03 05:01:05;;;;;;;4.75;3.42;;;;;;;-6.66;73.26;97617.34;4905144;29;20051;-79
2022/01/03 05:03:32;;;;;;;5.68;4.15;;;;;;;-6.76;72.89;97610.84;4903461;29;20048;-79
2022/01/03 05:06:00;;;;;;;6.35;4.15;;;;;;;-6.93;72.91;97621.84;4902657;29;20483;-78
2022/01/03 05:08:26;;;;;;;5.75;3.60;;;;;;;-7.03;72.53;97619.66;4884269;29;20139;-80
2022/01/03 05:10:52;;;;;;;5.72;4.15;;;;;;;-7.03;72.84;97627.44;4887292;29;20154;-80
2022/01/03 05:13:19;;;;;;;4.47;3.58;;;;;;;-7.13;72.60;97616.56;4903232;29;20487;-79
2022/01/03 05:15:45;;;;;;;4.70;3.50;;;;;;;-7.23;72.14;97616.06;4887398;29;20071;-78
2022/01/03 05:18:12;;;;;;;8.52;4.68;;;;;;;-7.17;72.51;97617.59;4918518;29;20140;-78
2022/01/03 05:20:38;;;;;;;4.72;3.25;;;;;;;-6.94;71.53;97612.38;4918154;29;20051;-81
2022/01/03 05:23:04;;;;;;;5.63;3.65;;;;;;;-6.85;70.92;97611.19;4902677;29;20154;-80
2022/01/03 05:25:31;;;;;;;5.65;3.63;;;;;;;-6.86;70.10;97625.09;4918387;29;20134;-79
2022/01/03 05:27:56;;;;;;;4.82;3.28;;;;;;;-6.93;69.80;97634.00;4902687;29;20122;-87
2022/01/03 05:30:25;;;;;;;6.80;4.53;;;;;;;-6.99;69.89;97640.28;4887320;29;20131;-88
2022/01/03 05:32:51;;;;;;;3.15;2.83;;;;;;;-6.90;70.53;97641.69;4918493;29;20091;-83
2022/01/03 05:35:18;;;;;;;5.20;4.00;;;;;;;-6.72;71.19;97643.59;4918956;29;20036;-84
2022/01/03 05:37:44;;;;;;;4.20;3.30;;;;;;;-7.03;69.59;97643.03;4887653;29;20174;-83
2022/01/03 05:40:10;;;;;;;3.40;2.97;;;;;;;-7.11;69.81;97657.16;4900553;29;20147;-81
2022/01/03 05:42:37;;;;;;;4.55;3.50;;;;;;;-7.14;70.02;97652.09;4901419;29;20504;-91
2022/01/03 05:45:10;;;;;;;5.82;3.38;;;;;;;-7.16;70.51;97643.50;4918308;29;20052;-84
2022/01/03 05:47:44;;;;;;;6.57;3.92;;;;;;;-7.25;70.60;97648.19;4904475;29;20048;-86
2022/01/03 05:50:16;;;;;;;3.83;3.10;;;;;;;-7.25;70.76;97655.97;4919439;29;20062;-84
2022/01/03 05:52:47;;;;;;;4.22;2.95;;;;;;;-7.25;70.70;97654.22;4935899;29;20052;-90
2022/01/03 05:55:15;;;;;;;8.00;3.17;;;;;;;-7.23;70.69;97661.94;4921882;29;20052;-82
2022/01/03 05:57:41;;;;;;;6.85;4.07;;;;;;;-7.14;70.73;97667.66;4917949;29;20091;-79
2022/01/03 06:00:16;;;;;;;8.68;4.05;;;;;;;-7.19;70.22;97661.75;4923584;29;20047;-80
2022/01/03 06:02:43;;;;;;;6.40;3.75;;;;;;;-7.13;70.27;97669.34;4924900;28;20066;-80
2022/01/03 06:05:18;;;;;;;4.55;3.60;;;;;;;-7.06;70.17;97664.78;4951197;28;20050;-80
2022/01/03 06:07:44;;;;;;;6.68;3.92;;;;;;;-7.02;69.65;97666.38;4942572;28;20043;-80
2022/01/03 06:10:15;;;;;;;9.25;5.00;;;;;;;-6.65;69.51;97678.00;4957608;28;20046;-79
2022/01/03 06:12:42;;;;;;;7.68;3.85;;;;;;;-6.73;68.46;97691.28;4911078;28;20114;-78
2022/01/03 06:15:08;;;;;;;8.27;4.10;;;;;;;-6.86;68.24;97690.03;4925366;28;20491;-80
2022/01/03 06:17:34;;;;;;;5.32;3.72;;;;;;;-6.73;68.27;97699.06;4908907;28;20043;-78
2022/01/03 06:20:00;;;;;;;4.97;3.17;;;;;;;-6.88;68.48;97704.84;4955824;28;20533;-78
2022/01/03 06:22:26;;;;;;;5.93;4.28;;;;;;;-6.89;69.03;97693.56;4940237;28;20074;-79
2022/01/03 06:24:57;;;;;;;2.75;2.50;;;;;;;-6.78;68.93;97700.97;4926225;28;20134;-81
2022/01/03 06:27:23;;;;;;;3.83;3.30;;;;;;;-6.82;68.95;97707.19;4893774;28;20469;-83
2022/01/03 06:29:49;;;;;;;7.85;4.80;;;;;;;-6.90;69.56;97712.66;4973906;28;20142;-80
2022/01/03 06:32:15;;;;;;;5.28;2.33;;;;;;;-6.93;69.78;97709.31;4893018;28;20494;-85
2022/01/03 06:34:42;;;;;;;8.13;4.68;;;;;;;-6.76;69.56;97704.38;4942109;28;20541;-85
2022/01/03 06:37:08;;;;;;;6.00;3.63;;;;;;;-6.85;69.42;97717.69;4924942;28;20046;-85
2022/01/03 06:39:44;;;;;;;4.82;3.13;;;;;;;-6.75;69.65;97719.06;4945473;28;20043;-83
2022/01/03 06:42:12;;;;;;;4.38;2.97;;;;;;;-6.77;68.47;97722.59;4927700;28;20038;-85
2022/01/03 06:44:38;;;;;;;3.50;3.20;;;;;;;-7.12;68.30;97704.78;4944697;28;20518;-83
2022/01/03 06:47:11;;;;;;;3.38;2.83;;;;;;;-7.32;68.86;97709.00;4976439;28;20080;-86
2022/01/03 06:50:07;;;;;;;5.25;3.03;;;;;;;-7.22;69.00;97702.56;4963451;28;20043;-86
2022/01/03 06:52:33;;;;;;;4.53;3.17;;;;;;;-7.39;69.09;97705.75;4892008;29;20068;-83
2022/01/03 06:54:59;;;;;;;4.22;3.17;;;;;;;-7.51;69.39;97724.34;4905460;29;20055;-79
2022/01/03 06:57:26;;;;;;;5.47;2.90;;;;;;;-7.63;69.75;97715.25;4890368;29;20495;-81
2022/01/03 06:59:54;;;;;;;6.95;3.67;;;;;;;-7.70;69.95;97714.59;4889691;29;20059;-80
2022/01/03 07:02:21;;;;;;;3.88;2.85;;;;;;;-7.70;69.56;97724.13;4889707;29;20056;-83
2022/01/03 07:04:48;;;;;;;3.47;2.53;;;;;;;-7.76;69.69;97719.97;4892772;29;20046;-85
2022/01/03 07:07:14;;;;;;;5.68;3.33;;;;;;;-7.71;70.08;97712.91;4923897;29;20051;-82
2022/01/03 07:09:40;;;;;;;3.63;2.90;;;;;;;-7.75;69.54;97736.38;4874070;29;20059;-83
2022/01/03 07:12:06;;;;;;;3.90;2.08;;;;;;;-7.73;69.18;97730.25;4889999;29;20504;-84
2022/01/03 07:19:55;;;;;;;5.57;3.88;;;;;;;-7.70;69.02;97706.81;4920488;29;20067;-84
2022/01/03 07:22:25;;;;;;;4.35;2.97;;;;;;;-7.58;68.73;97721.09;4912761;28;20502;-83
2022/01/03 07:24:52;;;;;;;5.07;3.17;;;;;;;-7.48;68.56;97716.47;4928398;28;20134;-92
2022/01/03 07:27:19;;;;;;;3.33;2.53;;;;;;;-7.40;68.41;97732.63;4944013;28;20059;-87
2022/01/03 07:29:47;;;;;;;2.80;2.20;;;;;;;-7.44;68.15;97715.47;4945082;28;20047;-86
2022/01/03 07:32:14;;;;;;;3.05;2.63;;;;;;;-7.35;67.69;97715.13;4946555;28;20047;-83
2022/01/03 07:34:43;;;;;;;4.40;2.33;;;;;;;-7.43;68.22;97723.19;4921890;29;20063;-87
2022/01/03 07:37:16;;;;;;;4.03;2.85;;;;;;;-7.37;67.87;97716.91;4921118;29;20063;-85
2022/01/03 07:39:48;;;;;;;2.65;2.30;;;;;;;-7.43;67.38;97711.97;4923109;29;20504;-89
2022/01/03 07:42:37;;;;;;;6.72;2.85;;;;;;;-7.23;67.54;97724.25;4907744;29;20146;-89
2022/01/03 07:45:09;;;;;;;5.63;2.60;;;;;;;-7.26;66.54;97714.81;4851741;29;20152;-83
2022/01/03 07:47:37;;;;;;;6.07;3.30;;;;;;;-7.21;66.68;97718.09;4883104;29;20109;-90
2022/01/03 07:50:05;;;;;;;3.63;2.53;;;;;;;-7.13;66.85;97699.66;4888155;29;20063;-90
2022/01/03 07:52:38;;;;;;;3.35;2.42;;;;;;;-7.11;66.39;97714.28;4895125;29;20101;-91
2022/01/03 07:55:07;;;;;;;4.53;3.33;;;;;;;-7.01;66.52;97703.56;4818484;29;20113;-84
2022/01/03 07:57:35;;;;;;;3.72;2.83;;;;;;;-6.88;65.94;97700.47;4861731;29;20054;-90
2022/01/03 08:00:06;;;;;;;5.57;4.28;;;;;;;-7.03;65.75;97702.75;4876385;29;20570;-86
2022/01/03 08:02:44;;;;;;;3.83;2.38;;;;;;;-7.10;65.67;97695.22;4863364;29;20045;-91
2022/01/03 08:05:15;;;;;;;4.65;3.42;;;;;;;-7.14;66.21;97698.81;4838679;29;20084;-96
2022/01/03 08:07:43;;;;;;;4.43;2.95;;;;;;;-7.09;65.75;97699.50;4856617;29;20108;-96
2022/01/03 08:10:13;;;;;;;5.03;2.78;;;;;;;-6.99;66.03;97697.44;4824451;29;20128;-93
2022/01/03 08:12:42;;;;;;;2.30;1.70;;;;;;;-6.96;65.38;97697.28;4839458;29;20065;-95
2022/01/03 08:15:12;;;;;;;2.92;2.47;;;;;;;-6.88;64.93;97687.50;4810472;29;20054;-92
2022/01/03 08:17:48;;;;;;;4.68;2.72;;;;;;;-6.89;64.86;97703.97;4835410;29;20062;-91
2022/01/03 08:20:25;;;;;;;3.60;2.50;;;;;;;-7.07;65.20;97690.78;4830086;29;20062;-95
2022/01/03 08:22:53;;;;;;;3.20;2.28;;;;;;;-7.33;65.54;97710.75;4812470;29;20054;-93
2022/01/03 08:25:23;;;;;;;4.70;2.88;;;;;;;-7.37;66.24;97711.72;4852381;29;20436;-96
2022/01/03 08:27:50;;;;;;;2.70;2.35;;;;;;;-7.45;65.36;97718.94;4848515;29;20148;-83
2022/01/03 08:30:22;;;;;;;3.28;2.28;;;;;;;-7.56;64.89;97721.88;4861485;29;20521;-88
2022/01/03 08:32:49;;;;;;;1.98;1.75;;;;;;;-7.72;64.36;97721.56;4845126;29;20113;-87
2022/01/03 08:35:15;;;;;;;4.50;2.97;;;;;;;-7.38;64.00;97712.63;4874618;29;20093;-91
2022/01/03 08:37:46;;;;;;;2.53;2.08;;;;;;;-7.60;63.11;97721.19;4852662;29;20052;-89
2022/01/03 08:40:40;;;;;;;2.55;2.33;;;;;;;-7.75;62.78;97721.66;4883974;29;20459;-90
2022/01/03 08:43:07;;;;;;;2.75;2.25;;;;;;;-7.85;63.60;97722.88;4868116;29;20064;-84
2022/01/03 08:45:36;;;;;;;2.40;2.17;;;;;;;-7.92;63.32;97718.78;4879592;29;20140;-86
2022/01/03 08:48:07;;;;;;;1.83;1.63;;;;;;;-7.77;62.62;97718.28;4863724;29;20182;-87
2022/01/03 08:50:41;;;;;;;3.40;2.45;;;;;;;-7.92;62.74;97704.06;4846224;29;20057;-88
2022/01/03 08:53:08;;;;;;;2.45;1.50;;;;;;;-7.91;62.58;97712.69;4846479;29;20061;-88
2022/01/03 08:55:34;;;;;;;2.45;1.70;;;;;;;-7.86;62.31;97713.38;4831489;29;20054;-86
2022/01/03 08:58:00;;;;;;;2.03;1.70;;;;;;;-7.85;62.20;97720.28;4860061;29;20206;-86
2022/01/03 09:00:27;;;;;;;2.88;2.17;;;;;;;-7.90;62.26;97711.78;4860042;29;20057;-89
2022/01/03 09:02:55;;;;;;;4.65;2.55;;;;;;;-8.04;62.07;97721.78;4845522;29;20525;-94
2022/01/03 09:05:21;;;;;;;6.03;2.38;;;;;;;-8.02;62.07;97717.38;4863198;29;20051;-85
2022/01/03 09:07:47;;;;;;;1.95;1.85;;;;;;;-7.40;68.89;97701.47;4880700;29;20096;-90
2022/01/03 09:10:13;;;;;;;4.00;2.13;;;;;;;-7.53;62.13;97695.00;4864388;29;20105;-88
2022/01/03 09:12:39;;;;;;;5.90;2.72;;;;;;;-7.37;61.51;97691.84;4863536;29;20045;-89
2022/01/03 09:15:06;;;;;;;2.58;2.17;;;;;;;-7.19;60.86;97690.31;4881743;29;20060;-82
2022/01/03 09:17:32;;;;;;;4.53;3.22;;;;;;;-7.17;60.01;97693.72;4917204;29;20152;-80
2022/01/03 09:19:58;;;;;;;5.10;2.92;;;;;;;-7.12;60.11;97681.41;4917545;29;20051;-84
2022/01/03 09:22:31;;;;;;;3.80;2.85;;;;;;;-7.01;59.56;97688.00;4905322;29;20106;-82
2022/01/03 09:30:10;;;;;;;2.80;2.33;;;;;;;-7.29;59.55;97688.13;4915634;29;20052;-79
2022/01/03 09:32:36;;;;;;;3.97;2.20;;;;;;;-7.43;59.30;97706.78;4901346;29;20091;-91
2022/01/03 09:35:03;;;;;;;2.60;2.22;;;;;;;-7.45;59.16;97703.38;4925177;29;20071;-91
2022/01/03 09:37:29;;;;;;;11.68;2.38;;;;;;;-7.42;59.33;97698.06;5017095;23;20066;-84
2022/01/03 09:39:55;;;;;;;3.03;2.20;;;;;;;-7.16;59.62;97703.22;4960646;28;20050;-80
2022/01/03 09:42:23;;;;;;;2.92;2.10;;;;;;;-7.35;58.61;97691.78;4973992;28;20049;-78
2022/01/03 09:44:53;;;;;;;4.13;1.88;;;;;;;-7.48;58.42;97704.34;4940873;28;20445;-81
2022/01/03 09:47:20;;;;;;;2.33;2.13;;;;;;;-7.68;59.02;97686.84;4925943;28;20050;-80
2022/01/03 09:49:46;;;;;;;2.92;2.13;;;;;;;-7.54;59.23;97701.09;4925375;28;20492;-80
2022/01/03 09:52:13;;;;;;;3.72;2.10;;;;;;;-7.64;58.90;97706.59;4905327;29;20043;-80
2022/01/03 09:54:39;;;;;;;3.15;2.30;;;;;;;-7.63;59.06;97702.25;4912432;28;20066;-79
2022/01/03 09:57:05;;;;;;;2.55;1.90;;;;;;;-7.72;59.19;97706.00;4938976;29;20089;-78
2022/01/03 09:59:31;;;;;;;3.40;2.45;;;;;;;-7.53;59.10;97710.56;4921975;29;20047;-80
2022/01/03 10:01:58;;;;;;;8.38;3.63;;;;;;;-7.31;58.67;97701.16;4937554;29;20423;-78
2022/01/03 10:04:24;;;;;;;4.78;2.55;;;;;;;-7.28;57.93;97701.06;4941650;28;20074;-79
2022/01/03 10:06:51;;;;;;;2.58;2.22;;;;;;;-7.63;57.83;97716.09;4937213;29;20046;-78
2022/01/03 10:09:18;;;;;;;2.58;1.90;;;;;;;-7.84;58.84;97706.41;4908959;28;20471;-79
2022/01/03 10:11:46;;;;;;;;;;;;;;;-7.63;58.67;97710.03;4947318;28;20046;-77
2022/01/03 10:14:12;;;;;;;2.33;1.85;;;;;;;-7.89;58.36;97718.69;4944943;28;20341;-80
2022/01/03 10:16:42;;;;;;;2.40;1.98;;;;;;;-7.91;58.51;97710.09;4946551;28;20042;-79
2022/01/03 10:19:08;;;;;;;1.70;1.60;;;;;;;-7.86;59.12;97708.19;4948118;28;20047;-80
2022/01/03 10:21:42;;;;;;;3.72;2.60;;;;;;;-7.79;58.85;97714.88;4907457;29;20054;-77
2022/01/03 10:24:11;;;;;;;4.22;2.70;;;;;;;-7.44;59.47;97715.47;4892530;28;20039;-81
2022/01/03 10:26:38;;;;;;;3.53;2.67;;;;;;;-7.13;57.78;97705.69;4909858;29;20040;-79
2022/01/03 10:29:33;;;;;;;2.72;2.00;;;;;;;-7.31;56.57;97706.34;4887244;29;20456;-80
2022/01/03 10:32:00;;;;;;;2.22;2.13;;;;;;;-7.36;56.37;97703.06;4901610;29;20056;-80
2022/01/03 10:34:27;;;;;;;1.77;1.67;;;;;;;-7.55;56.34;97721.00;4886916;29;20455;-78
2022/01/03 10:36:54;;;;;;;2.33;1.90;;;;;;;-7.76;57.57;97713.94;4899388;29;20068;-80
2022/01/03 10:39:21;;;;;;;6.03;2.85;;;;;;;-7.72;57.89;97720.72;4868443;29;20044;-80
2022/01/03 10:41:52;;;;;;;4.30;2.95;;;;;;;-7.81;57.55;97711.50;4869164;29;20048;-78
2022/01/03 10:44:31;;;;;;;2.83;1.85;;;;;;;-7.80;57.42;97738.28;4871099;29;21665;-81
2022/01/03 10:46:58;;;;;;;;;;;;;;;-7.81;57.74;97737.44;4916075;29;20058;-78
2022/01/03 10:49:24;;;;;;;5.80;2.53;;;;;;;-7.86;57.71;97744.50;4883934;29;19923;-79
2022/01/03 10:51:51;;;;;;;6.25;2.92;;;;;;;-7.64;58.36;97747.25;4887904;29;20059;-80
2022/01/03 10:54:18;;;;;;;3.50;2.70;;;;;;;-7.54;57.52;97747.81;4926621;29;20143;-80
2022/01/03 10:56:47;;;;;;;3.95;3.00;;;;;;;-7.40;57.75;97753.38;4906483;29;20063;-79
2022/01/03 10:59:14;;;;;;;4.22;3.08;;;;;;;-7.22;58.02;97757.97;4899856;29;20052;-79
2022/01/03 11:01:40;;;;;;;3.53;2.80;;;;;;;-7.21;57.56;97759.66;4899391;29;20082;-80
2022/01/03 11:04:06;;;;;;;4.72;3.28;;;;;;;-7.27;57.24;97754.66;4899366;29;20070;-80
2022/01/03 11:11:49;;;;;;;6.05;3.80;;;;;;;-6.41;56.92;97749.00;4915818;29;20126;-90
2022/01/03 11:14:39;;;;;;;7.20;4.00;;;;;;;-6.12;55.90;97747.88;4883452;29;20050;-79
2022/01/03 11:17:27;;;;;;;6.13;3.78;;;;;;;-6.26;55.71;97748.41;4915478;29;20052;-82
2022/01/03 11:19:58;;;;;;;7.00;4.05;;;;;;;-6.57;56.16;97751.31;4916012;29;20052;-82
2022/01/03 11:22:37;;;;;;;5.95;3.40;;;;;;;-7.00;56.18;97752.00;4916826;29;20058;-87
2022/01/03 11:25:05;;;;;;;7.18;4.20;;;;;;;-7.23;58.75;97760.59;4876731;29;20140;-85
2022/01/03 11:31:50;;;;;;;7.07;3.72;;;;;;;-7.65;57.33;97764.56;4881024;29;20465;-81
2022/01/03 11:34:17;;;;;;;11.65;4.78;;;;;;;-7.73;57.44;97770.91;4865853;29;20053;-84
2022/01/03 11:36:46;;;;;;;9.80;5.25;;;;;;;-8.00;57.49;97768.28;4874481;29;20052;-83
2022/01/03 11:39:14;;;;;;;6.97;4.32;;;;;;;-8.01;57.92;97770.91;4867934;29;20053;-88
2022/01/03 11:41:42;;;;;;;5.47;2.83;;;;;;;-8.37;58.07;97773.78;4865158;29;20065;-83
2022/01/03 11:44:12;;;;;;;8.55;4.28;;;;;;;-8.58;58.20;97785.59;4865004;29;20109;-89
2022/01/03 11:46:45;;;;;;;4.03;3.03;;;;;;;-8.73;58.60;97780.84;4880751;29;20181;-84
2022/01/03 11:49:11;;;;;;;5.63;3.63;;;;;;;-8.97;58.95;97778.03;4877538;29;20120;-85
2022/01/03 11:51:41;;;;;;;10.15;4.50;;;;;;;-9.03;59.36;97779.94;4847346;29;20064;-90
2022/01/03 11:54:16;;;;;;;6.60;3.13;;;;;;;-9.21;59.43;97766.63;4863979;29;20045;-92
2022/01/03 12:05:57;;;;;;;10.88;4.50;;;;;;;-9.51;60.48;97791.53;4898701;29;20051;-80
2022/01/03 12:08:24;;;;;;;12.05;5.82;;;;;;;-9.56;60.37;97776.09;4898599;29;20052;-82